Adner, Louisiana
Current Conditions -  °F | °C
As of 10:58 AM on Sunday 23 Nov 2014 (Local Time) from KBAD Reporting Station
Overcast Overcast  
Wind Chill: 64°   Ceiling: 1200
Heat Index: 64°   Visibility: 10mi
Dew Point: 64°   Wind: 10mph
Humidity: 100%   Direction: 230°SW
Pressure: 29.53"   Gusts: NA
Location:  32.5391°N, 93.5257°W
Report Text: KBAD 231658Z AUTO 23009KT 10SM BKN012 OVC019 18/18 A2953 RMK AO2 VIS 1 1/2 RWY33 SLP002 T01770177
Loading
Personal Weather Stations






























Interactive Weather Map New forecast layout! Learn more

10-Day Weather Forecast

Advertisements
Track Severe Weather on mobile